Weather observations for the past three days for
Emigrant Gap, Blue Canyon Nyack Airport
Imperial (Metric)
Date Time (pdt) Wind (mph) Vis. (mi.) Weather Sky Cond. Temperature (ºF) Relative Humidity Wind Chill (°F) Heat Index (°F) Pressure Precipitation (in)
Air Dwpt 6 hour altimeter (in) sea level (mb) 1 hr 3 hr 6 hr
Max. Min.
10 06:52 Calm 10.00 Fair CLR 57 43 60% 30.11 1011.9
10 05:52 Calm 10.00 Fair CLR 60.1 27 28% 30.11 1010.9
10 04:52 Calm 10.00 Fair CLR 61 30.9 64.9 60.1 32% 30.11 1010.8
10 03:52 Calm 10.00 Fair CLR 63 21.9 21% 30.11 1010.6
10 02:52 Calm 10.00 Fair CLR 62.1 23 22% 30.11 1010.6
10 01:52 NE 3 10.00 Fair CLR 61 26.1 26% 30.11 1010.7
10 00:52 NE 3 10.00 Fair CLR 64 28.9 27% 30.12 1010.6
09 23:52 Vrbl 3 10.00 Fair CLR 64 42.1 45% 30.13 1010.9
09 22:52 N 5 10.00 Fair CLR 63 51.1 71.1 62.1 65% 30.13 1011.3
09 21:52 N 3 10.00 Fair CLR 63 53.1 70% 30.13 1011.4
09 20:52 N 5 10.00 Fair CLR 62.1 52 70% 30.13 1012.1
09 19:52 NW 3 10.00 Fair CLR 64.9 50 59% 30.12 1011.8
09 18:52 Vrbl 6 10.00 Fair CLR 69.1 46 44% 30.12 1011.7
09 17:52 Vrbl 7 10.00 Fair CLR 71.1 45 39% 30.12 1011.6
09 16:52 W 8 10.00 Fair CLR 71.1 48.9 73 71.1 46% 30.12 1012.0
09 15:52 W 8 G 20 10.00 Fair CLR 71.1 53.1 53% 30.13 1012.1
09 14:52 SW 9 10.00 Fair CLR 72 52 50% 30.14 1012.2
09 13:52 Vrbl 7 10.00 Fair CLR 73 48 41% 30.14 1012.0
09 12:52 SW 7 10.00 Fair CLR 72 43 35% 30.15 1012.2
09 11:52 Calm 10.00 Fair CLR 71.1 35.1 27% 30.16 1012.9
09 10:52 Calm 10.00 Fair CLR 71.1 32 72 57 24% 30.16 1013.2
09 09:52 Calm 10.00 Fair CLR 70 32 25% 30.15 1012.9
09 08:52 Vrbl 5 10.00 Fair CLR 66 35.1 32% 30.15 1013.5
09 07:52 NE 6 10.00 Fair CLR 62.1 34 35% 30.14 1013.2
09 06:52 Vrbl 6 10.00 Fair CLR 57.9 33.1 39% 30.13 1013.1
09 05:52 Vrbl 7 10.00 Fair CLR 57.9 33.1 39% 30.12 1012.7
09 04:52 Vrbl 7 10.00 Fair CLR 57 35.1 61 55.9 44% 30.12 1012.5
09 03:52 Vrbl 7 10.00 Fair CLR 57 37.9 49% 30.13 1012.8
09 02:52 Vrbl 5 10.00 Fair CLR 57.9 39 50% 30.14 1012.8
09 01:52 NE 5 10.00 Fair CLR 59 39 48% 30.15 1013.3
09 00:52 Vrbl 5 10.00 Fair CLR 60.1 39 46% 30.16 1013.1
08 23:52 NE 5 10.00 Fair CLR 59 42.1 54% 30.16 1013.9
08 22:52 NE 3 10.00 Fair CLR 57 45 66.9 57 64% 30.17 1014.4
08 21:52 NE 5 10.00 Fair CLR 57.9 46.9 67% 30.17 1014.6
08 20:52 Calm 10.00 Fair CLR 57.9 44.1 60% 30.17 1014.8
08 19:52 W 3 10.00 Fair CLR 61 41 48% 30.16 1014.9
08 18:52 W 5 10.00 Fair CLR 64 41 43% 30.16 1015.2
08 17:52 W 7 10.00 Fair CLR 64.9 43 45% 30.17 1015.1
08 16:52 Vrbl 7 10.00 Fair CLR 66 45 69.1 64 47% 30.17 1015.2
08 15:52 Vrbl 5 10.00 Fair CLR 66.9 41 39% 30.18 1015.2
08 14:52 W 8 10.00 Fair CLR 66.9 30.9 26% 30.2 1015.6
08 13:52 W 10 G 20 10.00 Fair CLR 66.9 33.1 29% 30.21 1015.6
08 12:52 Vrbl 6 10.00 Fair CLR 66.9 30 25% 30.21 1015.9
08 11:52 Vrbl 3 10.00 Fair CLR 64.9 21 19% 30.22 1016.5
08 10:52 Calm 10.00 Fair CLR 64 17.1 64 52 16% 30.22 1016.9
08 09:52 Vrbl 6 10.00 Fair CLR 63 21.9 21% 30.21 1016.5
08 08:52 Vrbl 5 10.00 Fair CLR 61 25 25% 30.2 1016.3
08 07:52 SE 3 10.00 Fair CLR 57 28.9 34% 30.2 1016.3
08 06:52 E 3 10.00 Fair CLR 52 28.9 41% 30.19 1016.0
08 05:52 E 3 10.00 Fair CLR 52 26.1 37% 30.18 1015.7
08 04:52 Calm 10.00 Fair CLR 52 26.1 55.9 52 37% 30.18 1015.5
08 03:52 Calm 10.00 Fair CLR 53.1 21 28% 30.18 1015.2
08 02:52 Calm 10.00 Fair CLR 54 21.9 29% 30.18 1015.3
08 01:52 Calm 10.00 Fair CLR 55.9 19 24% 30.18 1015.0
08 00:52 Calm 10.00 Fair CLR 54 24.1 31% 30.19 1015.6
07 23:52 Calm 10.00 Fair CLR 55 30.9 40% 30.19 1015.6
07 22:52 NE 3 10.00 Fair CLR 54 44.1 64.9 53.1 69% 30.2 1016.2
07 21:52 Calm 10.00 Fair CLR 55 48 77% 30.21 1016.5
07 20:52 Calm 10.00 Fair CLR 57 50 78% 30.2 1016.3
07 19:52 S 3 10.00 Fair CLR 59 46 62% 30.19 1015.5
07 18:52 Vrbl 5 10.00 Fair CLR 63 43 48% 30.19 1015.7
07 17:52 Calm 10.00 Fair CLR 64 37 37% 30.19 1015.9
07 16:52 W 8 10.00 Fair CLR 64.9 42.1 66.9 63 43% 30.19 1015.6
07 15:52 Vrbl 7 G 17 10.00 Fair CLR 66 44.1 45% 30.2 1015.4
07 14:52 SW 7 10.00 Fair CLR 66 46.9 50% 30.21 1015.7
07 13:52 SW 8 10.00 Fair CLR 66 42.1 42% 30.22 1015.7
07 12:52 W 9 10.00 Fair CLR 64.9 46 51% 30.23 1016.5
07 11:52 W 8 10.00 Fair CLR 64 48 56% 30.23 1016.7
07 10:52 W 6 10.00 Fair CLR 63 39.9 64 53.1 43% 30.23 1017.0
07 09:52 SE 5 10.00 Fair CLR 62.1 45 54% 30.23 1016.8
07 08:52 Calm 10.00 Fair CLR 61 44.1 54% 30.22 1016.6
07 07:52 Calm 10.00 Fair CLR 60.1 41 50% 30.22 1016.4
Date Time (pdt) Wind (mph) Vis. (mi.) Weather Sky Cond. Air Dwpt Max. Min. Relative Humidity Wind Chill (°F) Heat Index (°F) altimeter (in) sea level (mb) 1 hr 3 hr 6 hr
6 hour
Temperature (ºF) Pressure Precipitation (in)